createdAt,value
2022-07-30T00:00:31.334Z,1017.73
2022-07-30T00:01:35.674Z,1017.75
2022-07-30T00:02:39.189Z,1017.74
2022-07-30T00:04:14.155Z,1017.74
2022-07-30T00:05:16.804Z,1017.75
2022-07-30T00:06:19.674Z,1017.73
2022-07-30T00:07:55.757Z,1017.73
2022-07-30T00:08:58.581Z,1017.71
2022-07-30T00:10:01.453Z,1017.75
2022-07-30T00:11:39.370Z,1017.65
2022-07-30T00:12:42.018Z,1017.70
2022-07-30T00:13:44.663Z,1017.70
2022-07-30T00:15:19.278Z,1017.67
2022-07-30T00:16:22.191Z,1017.68
2022-07-30T00:17:28.132Z,1017.63
2022-07-30T00:19:09.406Z,1017.64
2022-07-30T00:20:18.637Z,1017.62
2022-07-30T00:21:48.485Z,1017.66
2022-07-30T00:23:24.045Z,1017.59
2022-07-30T00:24:48.691Z,1017.60
2022-07-30T00:25:51.735Z,1017.62
2022-07-30T00:27:26.108Z,1017.58
2022-07-30T00:28:28.836Z,1017.58
2022-07-30T00:29:31.507Z,1017.62
2022-07-30T00:31:14.373Z,1017.59
2022-07-30T00:32:17.238Z,1017.62
2022-07-30T00:33:20.009Z,1017.62
2022-07-30T00:34:54.588Z,1017.60
2022-07-30T00:35:57.378Z,1017.61
2022-07-30T00:37:00.370Z,1017.60
2022-07-30T00:38:34.869Z,1017.61
2022-07-30T00:39:37.850Z,1017.57
2022-07-30T00:40:40.565Z,1017.54
2022-07-30T00:42:15.221Z,1017.55
2022-07-30T00:43:19.012Z,1017.57
2022-07-30T00:44:21.833Z,1017.56
2022-07-30T00:45:59.156Z,1017.52
2022-07-30T00:47:02.750Z,1017.53
2022-07-30T00:48:05.853Z,1017.54
2022-07-30T00:49:46.979Z,1017.55
2022-07-30T00:50:50.949Z,1017.59
2022-07-30T00:51:54.838Z,1017.57
2022-07-30T00:53:29.462Z,1017.59
2022-07-30T00:54:32.596Z,1017.58
2022-07-30T00:55:35.306Z,1017.59
2022-07-30T00:57:10.170Z,1017.62
2022-07-30T00:58:14.942Z,1017.62
2022-07-30T00:59:17.601Z,1017.66
2022-07-30T01:00:23.547Z,1017.66
2022-07-30T01:01:28.342Z,1017.63
2022-07-30T01:02:31.560Z,1017.61
2022-07-30T01:04:06.454Z,1017.64
2022-07-30T01:05:09.316Z,1017.62
2022-07-30T01:06:19.731Z,1017.63
2022-07-30T01:07:55.279Z,1017.57
2022-07-30T01:08:58.149Z,1017.59
2022-07-30T01:10:01.314Z,1017.58
2022-07-30T01:11:35.921Z,1017.60
2022-07-30T01:12:38.691Z,1017.56
2022-07-30T01:13:41.536Z,1017.59
2022-07-30T01:15:15.952Z,1017.55
2022-07-30T01:16:18.973Z,1017.56
2022-07-30T01:17:23.767Z,1017.59
2022-07-30T01:18:58.259Z,1017.58
2022-07-30T01:20:00.996Z,1017.56
2022-07-30T01:21:05.219Z,1017.52
2022-07-30T01:22:42.006Z,1017.54
2022-07-30T01:23:49.020Z,1017.55
2022-07-30T01:24:51.879Z,1017.54
2022-07-30T01:26:26.428Z,1017.51
2022-07-30T01:27:31.175Z,1017.54
2022-07-30T01:28:33.952Z,1017.54
2022-07-30T01:30:08.346Z,1017.52
2022-07-30T01:31:12.538Z,1017.52
2022-07-30T01:32:15.848Z,1017.53
2022-07-30T01:33:50.266Z,1017.56
2022-07-30T01:34:55.706Z,1017.58
2022-07-30T01:35:58.461Z,1017.53
2022-07-30T01:37:33.097Z,1017.56
2022-07-30T01:38:40.884Z,1017.56
2022-07-30T01:39:43.617Z,1017.59
2022-07-30T01:41:18.015Z,1017.59
2022-07-30T01:42:20.616Z,1017.59
2022-07-30T01:43:23.402Z,1017.60
2022-07-30T01:44:57.806Z,1017.57
2022-07-30T01:46:00.794Z,1017.58
2022-07-30T01:47:04.788Z,1017.63
2022-07-30T01:48:40.641Z,1017.58
2022-07-30T01:49:43.733Z,1017.62
2022-07-30T01:50:46.428Z,1017.60
2022-07-30T01:52:29.147Z,1017.62
2022-07-30T01:53:35.004Z,1017.61
2022-07-30T01:54:37.611Z,1017.63
2022-07-30T01:56:17.101Z,1017.64
2022-07-30T01:57:26.437Z,1017.61
2022-07-30T01:58:29.284Z,1017.65
2022-07-30T02:00:23.053Z,1017.60
2022-07-30T02:01:26.142Z,1017.58
2022-07-30T02:02:29.492Z,1017.58
2022-07-30T02:04:06.055Z,1017.57
2022-07-30T02:05:08.852Z,1017.54
2022-07-30T02:06:11.664Z,1017.54
2022-07-30T02:07:48.117Z,1017.55
2022-07-30T02:08:50.974Z,1017.55
2022-07-30T02:10:02.655Z,1017.58
2022-07-30T02:11:43.864Z,1017.55
2022-07-30T02:12:46.725Z,1017.54
2022-07-30T02:13:49.359Z,1017.55
2022-07-30T02:15:23.854Z,1017.58
2022-07-30T02:16:26.920Z,1017.53
2022-07-30T02:17:42.845Z,1017.52
2022-07-30T02:19:25.973Z,1017.50
2022-07-30T02:20:41.470Z,1017.47
2022-07-30T02:22:02.983Z,1017.50
2022-07-30T02:23:41.300Z,1017.51
2022-07-30T02:24:44.058Z,1017.51
2022-07-30T02:25:46.799Z,1017.49
2022-07-30T02:27:23.406Z,1017.46
2022-07-30T02:28:30.075Z,1017.52
2022-07-30T02:29:33.773Z,1017.54
2022-07-30T02:31:22.795Z,1017.50
2022-07-30T02:32:26.774Z,1017.56
2022-07-30T02:33:31.211Z,1017.53
2022-07-30T02:35:13.735Z,1017.53
2022-07-30T02:36:22.447Z,1017.50
2022-07-30T02:37:48.503Z,1017.48
2022-07-30T02:39:22.846Z,1017.44
2022-07-30T02:40:25.640Z,1017.50
2022-07-30T02:41:28.226Z,1017.48
2022-07-30T02:43:07.800Z,1017.45
2022-07-30T02:44:10.446Z,1017.47
2022-07-30T02:45:13.216Z,1017.46
2022-07-30T02:46:50.146Z,1017.47
2022-07-30T02:47:56.731Z,1017.51
2022-07-30T02:49:21.735Z,1017.51
2022-07-30T02:50:56.264Z,1017.50
2022-07-30T02:51:59.998Z,1017.47
2022-07-30T02:53:02.775Z,1017.49
2022-07-30T02:54:38.117Z,1017.44
2022-07-30T02:55:40.946Z,1017.47
2022-07-30T02:56:43.646Z,1017.47
2022-07-30T02:58:18.290Z,1017.44
2022-07-30T02:59:21.052Z,1017.47
2022-07-30T03:00:23.937Z,1017.46
2022-07-30T03:01:27.353Z,1017.46
2022-07-30T03:02:43.577Z,1017.46
2022-07-30T03:04:20.273Z,1017.48
2022-07-30T03:05:23.072Z,1017.46
2022-07-30T03:06:25.928Z,1017.50
2022-07-30T03:08:05.820Z,1017.51
2022-07-30T03:09:11.617Z,1017.50
2022-07-30T03:10:42.764Z,1017.53
2022-07-30T03:12:19.972Z,1017.52
2022-07-30T03:13:22.768Z,1017.53
2022-07-30T03:14:25.411Z,1017.52
2022-07-30T03:16:00.875Z,1017.55
2022-07-30T03:17:04.429Z,1017.59
2022-07-30T03:18:07.126Z,1017.62
2022-07-30T03:19:41.718Z,1017.61
2022-07-30T03:20:44.332Z,1017.64
2022-07-30T03:21:47.042Z,1017.61
2022-07-30T03:23:24.819Z,1017.65
2022-07-30T03:24:27.589Z,1017.59
2022-07-30T03:25:35.303Z,1017.60
2022-07-30T03:27:13.524Z,1017.60
2022-07-30T03:28:16.206Z,1017.61
2022-07-30T03:29:21.762Z,1017.61
2022-07-30T03:30:56.595Z,1017.62
2022-07-30T03:32:00.882Z,1017.64
2022-07-30T03:33:12.025Z,1017.65
2022-07-30T03:35:17.491Z,1017.64
2022-07-30T03:36:23.651Z,1017.63
2022-07-30T03:37:26.603Z,1017.66
2022-07-30T03:39:01.024Z,1017.67
2022-07-30T03:40:03.708Z,1017.71
2022-07-30T03:41:06.486Z,1017.73
2022-07-30T03:42:43.731Z,1017.74
2022-07-30T03:43:46.348Z,1017.73
2022-07-30T03:44:48.993Z,1017.71
2022-07-30T03:46:23.615Z,1017.71
2022-07-30T03:47:26.709Z,1017.72
2022-07-30T03:48:29.543Z,1017.69
2022-07-30T03:50:04.546Z,1017.68
2022-07-30T03:51:07.408Z,1017.70
2022-07-30T03:52:10.078Z,1017.72
2022-07-30T03:53:44.397Z,1017.70
2022-07-30T03:54:47.875Z,1017.72
2022-07-30T03:55:50.515Z,1017.73
2022-07-30T03:57:31.873Z,1017.76
2022-07-30T03:58:41.714Z,1017.82
2022-07-30T03:59:44.498Z,1017.78
2022-07-30T04:00:23.424Z,1017.81
2022-07-30T04:01:26.346Z,1017.83
2022-07-30T04:02:29.378Z,1017.86
2022-07-30T04:04:04.424Z,1017.89
2022-07-30T04:05:53.144Z,1017.89
2022-07-30T04:06:59.518Z,1017.90
2022-07-30T04:08:05.566Z,1017.88
2022-07-30T04:09:44.596Z,1017.91
2022-07-30T04:10:47.437Z,1017.92
2022-07-30T04:11:53.182Z,1017.94
2022-07-30T04:13:27.914Z,1017.93
2022-07-30T04:14:30.973Z,1017.96
2022-07-30T04:16:52.119Z,1017.98
2022-07-30T04:18:28.464Z,1017.93
2022-07-30T04:19:31.273Z,1017.97
2022-07-30T04:20:33.885Z,1018.00
2022-07-30T04:22:14.725Z,1017.99
2022-07-30T04:23:17.498Z,1018.06
2022-07-30T04:24:50.157Z,1018.03
2022-07-30T04:26:24.540Z,1018.04
2022-07-30T04:27:27.528Z,1018.05
2022-07-30T04:28:54.613Z,1018.00
2022-07-30T04:30:36.057Z,1018.01
2022-07-30T04:31:45.627Z,1018.04
2022-07-30T04:32:48.577Z,1018.01
2022-07-30T04:34:23.641Z,1018.01
2022-07-30T04:36:02.950Z,1018.02
2022-07-30T04:37:09.099Z,1017.98
2022-07-30T04:38:43.524Z,1018.00
2022-07-30T04:39:46.314Z,1018.03
2022-07-30T04:40:48.942Z,1018.02
2022-07-30T04:42:41.438Z,1018.04
2022-07-30T04:43:44.143Z,1018.04
2022-07-30T04:44:47.285Z,1018.00
2022-07-30T04:46:24.760Z,1018.03
2022-07-30T04:47:27.810Z,1018.06
2022-07-30T04:48:32.428Z,1018.06
2022-07-30T04:50:12.034Z,1018.10
2022-07-30T04:51:15.171Z,1018.10
2022-07-30T04:52:18.069Z,1018.10
2022-07-30T04:53:52.676Z,1018.15
2022-07-30T04:55:01.973Z,1018.16
2022-07-30T04:56:04.716Z,1018.19
2022-07-30T04:57:51.753Z,1018.22
2022-07-30T04:58:54.587Z,1018.22
2022-07-30T04:59:57.145Z,1018.20
2022-07-30T05:00:23.509Z,1018.21
2022-07-30T05:01:46.604Z,1018.21
2022-07-30T05:02:49.738Z,1018.20
2022-07-30T05:04:24.135Z,1018.22
2022-07-30T05:05:27.600Z,1018.17
2022-07-30T05:06:30.564Z,1018.16
2022-07-30T05:08:08.542Z,1018.17
2022-07-30T05:09:11.310Z,1018.19
2022-07-30T05:10:14.239Z,1018.15
2022-07-30T05:11:50.541Z,1018.17
2022-07-30T05:12:53.315Z,1018.18
2022-07-30T05:13:59.640Z,1018.21
2022-07-30T05:15:48.908Z,1018.20
2022-07-30T05:16:51.856Z,1018.23
2022-07-30T05:17:55.338Z,1018.26
2022-07-30T05:19:29.988Z,1018.27
2022-07-30T05:20:36.846Z,1018.27
2022-07-30T05:21:40.213Z,1018.27
2022-07-30T05:23:14.696Z,1018.27
2022-07-30T05:24:17.460Z,1018.32
2022-07-30T05:25:27.523Z,1018.33
2022-07-30T05:27:02.667Z,1018.37
2022-07-30T05:28:05.696Z,1018.36
2022-07-30T05:29:14.943Z,1018.36
2022-07-30T05:31:02.327Z,1018.34
2022-07-30T05:32:18.593Z,1018.32
2022-07-30T05:33:46.569Z,1018.33
2022-07-30T05:35:26.605Z,1018.38
2022-07-30T05:36:29.424Z,1018.38
2022-07-30T05:37:32.286Z,1018.41
2022-07-30T05:39:10.670Z,1018.45
2022-07-30T05:40:15.041Z,1018.43
2022-07-30T05:41:43.623Z,1018.41
2022-07-30T05:43:18.040Z,1018.46
2022-07-30T05:44:23.998Z,1018.49
2022-07-30T05:45:27.143Z,1018.49
2022-07-30T05:47:03.684Z,1018.51
2022-07-30T05:48:08.565Z,1018.52
2022-07-30T05:49:11.755Z,1018.48
2022-07-30T05:50:51.329Z,1018.51
2022-07-30T05:51:56.157Z,1018.50
2022-07-30T05:52:58.998Z,1018.50
2022-07-30T05:54:36.113Z,1018.50
2022-07-30T05:55:42.036Z,1018.52
2022-07-30T05:56:44.769Z,1018.53
2022-07-30T05:58:19.886Z,1018.55
2022-07-30T05:59:22.744Z,1018.51
2022-07-30T06:00:23.084Z,1018.57
2022-07-30T06:01:25.981Z,1018.57
2022-07-30T06:02:30.391Z,1018.51
2022-07-30T06:04:05.253Z,1018.53
2022-07-30T06:05:08.667Z,1018.55
2022-07-30T06:06:11.435Z,1018.52
2022-07-30T06:07:52.357Z,1018.56
2022-07-30T06:08:55.103Z,1018.55
2022-07-30T06:09:57.872Z,1018.54
2022-07-30T06:11:32.494Z,1018.55
2022-07-30T06:12:35.191Z,1018.54
2022-07-30T06:13:38.043Z,1018.55
2022-07-30T06:15:12.380Z,1018.55
2022-07-30T06:16:23.898Z,1018.54
2022-07-30T06:17:26.775Z,1018.54
2022-07-30T06:19:31.017Z,1018.55
2022-07-30T06:20:33.856Z,1018.59
2022-07-30T06:22:12.586Z,1018.55
2022-07-30T06:23:53.270Z,1018.61
2022-07-30T06:24:56.097Z,1018.57
2022-07-30T06:26:04.510Z,1018.60
2022-07-30T06:27:45.573Z,1018.59
2022-07-30T06:29:24.511Z,1018.59
2022-07-30T06:30:37.169Z,1018.60
2022-07-30T06:32:12.225Z,1018.60
2022-07-30T06:33:15.074Z,1018.60
2022-07-30T06:34:17.787Z,1018.61
2022-07-30T06:36:01.540Z,1018.61
2022-07-30T06:37:06.407Z,1018.68
2022-07-30T06:38:46.954Z,1018.69
2022-07-30T06:41:00.506Z,1018.70
2022-07-30T06:42:05.183Z,1018.68
2022-07-30T06:43:07.795Z,1018.69
2022-07-30T06:44:42.335Z,1018.74
2022-07-30T06:45:45.216Z,1018.72
2022-07-30T06:46:48.707Z,1018.73
2022-07-30T06:48:31.036Z,1018.75
2022-07-30T06:49:34.274Z,1018.74
2022-07-30T06:50:36.893Z,1018.77
2022-07-30T06:52:14.509Z,1018.77
2022-07-30T06:53:19.970Z,1018.75
2022-07-30T06:54:28.771Z,1018.74
2022-07-30T06:56:06.333Z,1018.81
2022-07-30T06:57:09.823Z,1018.79
2022-07-30T06:58:12.609Z,1018.78
2022-07-30T07:00:23.621Z,1018.82
2022-07-30T07:01:26.679Z,1018.80
2022-07-30T07:02:29.663Z,1018.81
2022-07-30T07:04:09.312Z,1018.80
2022-07-30T07:05:12.458Z,1018.79
2022-07-30T07:06:15.179Z,1018.82
2022-07-30T07:08:10.556Z,1018.81
2022-07-30T07:09:16.994Z,1018.79
2022-07-30T07:10:24.540Z,1018.80
2022-07-30T07:11:59.259Z,1018.79
2022-07-30T07:13:01.922Z,1018.76
2022-07-30T07:14:10.384Z,1018.72
2022-07-30T07:15:48.596Z,1018.74
2022-07-30T07:16:54.796Z,1018.75
2022-07-30T07:17:59.261Z,1018.77
2022-07-30T07:20:13.466Z,1018.77
2022-07-30T07:21:16.374Z,1018.79
2022-07-30T07:22:19.038Z,1018.82
2022-07-30T07:24:05.715Z,1018.82
2022-07-30T07:25:08.402Z,1018.80
2022-07-30T07:26:11.127Z,1018.80
2022-07-30T07:27:45.955Z,1018.82
2022-07-30T07:29:25.268Z,1018.81
2022-07-30T07:30:48.229Z,1018.82
2022-07-30T07:33:05.012Z,1018.75
2022-07-30T07:34:09.211Z,1018.76
2022-07-30T07:35:14.518Z,1018.75
2022-07-30T07:36:49.494Z,1018.80
2022-07-30T07:37:52.648Z,1018.79
2022-07-30T07:38:55.454Z,1018.79
2022-07-30T07:40:39.416Z,1018.81
2022-07-30T07:42:00.281Z,1018.83
2022-07-30T07:43:02.961Z,1018.83
2022-07-30T07:44:37.531Z,1018.84
2022-07-30T07:45:40.263Z,1018.84
2022-07-30T07:46:45.626Z,1018.82
2022-07-30T07:48:20.878Z,1018.86
2022-07-30T07:49:23.967Z,1018.84
2022-07-30T07:50:26.796Z,1018.87
2022-07-30T07:52:38.640Z,1018.86
2022-07-30T07:53:42.049Z,1018.83
2022-07-30T07:55:19.729Z,1018.88
2022-07-30T07:56:59.334Z,1018.86
2022-07-30T07:58:09.795Z,1018.85
2022-07-30T07:59:36.201Z,1018.81
2022-07-30T08:00:23.256Z,1018.88
2022-07-30T08:01:27.198Z,1018.96
2022-07-30T08:02:36.373Z,1018.95
2022-07-30T08:04:16.228Z,1018.97
2022-07-30T08:05:18.968Z,1018.93
2022-07-30T08:07:01.764Z,1018.91
2022-07-30T08:08:36.749Z,1018.88
2022-07-30T08:09:55.906Z,1018.88
2022-07-30T08:10:58.558Z,1018.86
2022-07-30T08:12:32.841Z,1018.89
2022-07-30T08:14:03.377Z,1018.87
2022-07-30T08:15:06.244Z,1018.88
2022-07-30T08:16:45.521Z,1018.86
2022-07-30T08:17:49.027Z,1018.86
2022-07-30T08:18:51.765Z,1018.86
2022-07-30T08:20:28.707Z,1018.83
2022-07-30T08:21:34.606Z,1018.86
2022-07-30T08:22:37.303Z,1018.85
2022-07-30T08:24:15.399Z,1018.83
2022-07-30T08:25:30.025Z,1018.80
2022-07-30T08:26:32.792Z,1018.78
2022-07-30T08:28:09.133Z,1018.74
2022-07-30T08:29:40.814Z,1018.70
2022-07-30T08:30:44.487Z,1018.69
2022-07-30T08:32:24.047Z,1018.71
2022-07-30T08:33:32.970Z,1018.70
2022-07-30T08:34:37.205Z,1018.71
2022-07-30T08:36:16.219Z,1018.75
2022-07-30T08:37:25.431Z,1018.75
2022-07-30T08:38:29.448Z,1018.70
2022-07-30T08:40:04.210Z,1018.69
2022-07-30T08:41:07.022Z,1018.69
2022-07-30T08:42:10.340Z,1018.72
2022-07-30T08:43:44.710Z,1018.67
2022-07-30T08:44:47.370Z,1018.70
2022-07-30T08:47:24.791Z,1018.65
2022-07-30T08:48:28.111Z,1018.66
2022-07-30T08:49:30.956Z,1018.69
2022-07-30T08:51:08.768Z,1018.62
2022-07-30T08:52:11.947Z,1018.65
2022-07-30T08:53:14.661Z,1018.66
2022-07-30T08:54:50.540Z,1018.65
2022-07-30T08:55:56.904Z,1018.63
2022-07-30T08:57:01.344Z,1018.62
2022-07-30T08:58:35.900Z,1018.66
2022-07-30T09:00:22.890Z,1018.66
2022-07-30T09:01:25.619Z,1018.72
2022-07-30T09:02:38.757Z,1018.69
2022-07-30T09:04:13.209Z,1018.77
2022-07-30T09:05:16.613Z,1018.78
2022-07-30T09:06:19.497Z,1018.77
2022-07-30T09:07:54.793Z,1018.78
2022-07-30T09:09:04.856Z,1018.81
2022-07-30T09:10:07.781Z,1018.77
2022-07-30T09:11:50.635Z,1018.74
2022-07-30T09:12:53.745Z,1018.73
2022-07-30T09:13:59.482Z,1018.75
2022-07-30T09:15:37.611Z,1018.77
2022-07-30T09:16:40.762Z,1018.81
2022-07-30T09:17:44.224Z,1018.79
2022-07-30T09:19:18.570Z,1018.78
2022-07-30T09:20:21.712Z,1018.75
2022-07-30T09:21:24.602Z,1018.75
2022-07-30T09:22:59.155Z,1018.74
2022-07-30T09:24:02.457Z,1018.72
2022-07-30T09:25:05.203Z,1018.72
2022-07-30T09:26:39.913Z,1018.73
2022-07-30T09:27:42.557Z,1018.70
2022-07-30T09:28:45.517Z,1018.73
2022-07-30T09:30:20.066Z,1018.75
2022-07-30T09:32:40.570Z,1018.74
2022-07-30T09:34:15.764Z,1018.76
2022-07-30T09:35:18.464Z,1018.73
2022-07-30T09:36:22.039Z,1018.75
2022-07-30T09:38:02.959Z,1018.68
2022-07-30T09:39:08.580Z,1018.70
2022-07-30T09:40:11.401Z,1018.67
2022-07-30T09:42:30.909Z,1018.66
2022-07-30T09:43:39.102Z,1018.66
2022-07-30T09:44:41.727Z,1018.67
2022-07-30T09:46:42.724Z,1018.70
2022-07-30T09:47:45.532Z,1018.73
2022-07-30T09:48:48.365Z,1018.70
2022-07-30T09:50:36.150Z,1018.68
2022-07-30T09:52:09.067Z,1018.71
2022-07-30T09:53:36.091Z,1018.70
2022-07-30T09:55:18.412Z,1018.71
2022-07-30T09:56:30.403Z,1018.62
2022-07-30T09:58:03.569Z,1018.69
2022-07-30T09:59:54.005Z,1018.68
2022-07-30T10:00:29.768Z,1018.65
2022-07-30T10:02:07.377Z,1018.65
2022-07-30T10:03:42.203Z,1018.60
2022-07-30T10:05:21.208Z,1018.64
2022-07-30T10:06:27.368Z,1018.70
2022-07-30T10:07:48.525Z,1018.70
2022-07-30T10:09:43.172Z,1018.73
2022-07-30T10:11:08.661Z,1018.74
2022-07-30T10:12:23.985Z,1018.75
2022-07-30T10:14:07.581Z,1018.73
2022-07-30T10:15:30.102Z,1018.73
2022-07-30T10:16:36.628Z,1018.71
2022-07-30T10:18:19.162Z,1018.68
2022-07-30T10:19:46.063Z,1018.69
2022-07-30T10:20:59.733Z,1018.74
2022-07-30T10:22:37.822Z,1018.75
2022-07-30T10:23:50.769Z,1018.75
2022-07-30T10:24:58.339Z,1018.75
2022-07-30T10:26:57.283Z,1018.75
2022-07-30T10:28:09.502Z,1018.71
2022-07-30T10:29:18.773Z,1018.69
2022-07-30T10:32:00.173Z,1018.65
2022-07-30T10:33:46.796Z,1018.65
2022-07-30T10:34:54.397Z,1018.63
2022-07-30T10:36:43.998Z,1018.62
2022-07-30T10:37:52.737Z,1018.60
2022-07-30T10:39:04.242Z,1018.58
2022-07-30T10:40:45.383Z,1018.57
2022-07-30T10:42:00.267Z,1018.51
2022-07-30T10:43:04.242Z,1018.52
2022-07-30T10:44:51.844Z,1018.52
2022-07-30T10:46:19.836Z,1018.58
2022-07-30T10:47:29.786Z,1018.52
2022-07-30T10:49:24.997Z,1018.55
2022-07-30T10:50:40.020Z,1018.50
2022-07-30T10:51:52.439Z,1018.55
2022-07-30T10:53:35.113Z,1018.56
2022-07-30T10:54:45.657Z,1018.52
2022-07-30T10:55:51.064Z,1018.49
2022-07-30T10:57:50.123Z,1018.50
2022-07-30T10:59:02.867Z,1018.48
2022-07-30T11:00:26.825Z,1018.45
2022-07-30T11:01:36.163Z,1018.46
2022-07-30T11:02:45.887Z,1018.48
2022-07-30T11:04:44.328Z,1018.44
2022-07-30T11:05:57.169Z,1018.53
2022-07-30T11:07:01.187Z,1018.53
2022-07-30T11:08:48.938Z,1018.57
2022-07-30T11:10:16.833Z,1018.55
2022-07-30T11:12:22.182Z,1018.48
2022-07-30T11:14:00.692Z,1018.47
2022-07-30T11:15:24.405Z,1018.48
2022-07-30T11:16:40.193Z,1018.44
2022-07-30T11:18:24.957Z,1018.40
2022-07-30T11:20:11.944Z,1018.38
2022-07-30T11:21:21.301Z,1018.42
2022-07-30T11:23:03.150Z,1018.42
2022-07-30T11:24:08.058Z,1018.45
2022-07-30T11:25:24.548Z,1018.47
2022-07-30T11:27:27.251Z,1018.48
2022-07-30T11:28:40.715Z,1018.52
2022-07-30T11:30:02.874Z,1018.51
2022-07-30T11:32:13.087Z,1018.52
2022-07-30T11:33:18.709Z,1018.49
2022-07-30T11:34:36.762Z,1018.51
2022-07-30T11:36:24.372Z,1018.53
2022-07-30T11:37:57.961Z,1018.53
2022-07-30T11:39:12.921Z,1018.46
2022-07-30T11:41:13.048Z,1018.43
2022-07-30T11:42:17.661Z,1018.44
2022-07-30T11:43:20.335Z,1018.53
2022-07-30T11:45:15.347Z,1018.50
2022-07-30T11:46:28.934Z,1018.54
2022-07-30T11:47:34.463Z,1018.52
2022-07-30T11:49:09.216Z,1018.52
2022-07-30T11:50:12.187Z,1018.54
2022-07-30T11:51:15.396Z,1018.51
2022-07-30T11:52:54.747Z,1018.47
2022-07-30T11:53:57.439Z,1018.50
2022-07-30T11:55:00.031Z,1018.47
2022-07-30T11:56:34.528Z,1018.49
2022-07-30T11:57:49.699Z,1018.49
2022-07-30T11:58:52.392Z,1018.48
2022-07-30T12:00:23.608Z,1018.49
2022-07-30T12:01:26.410Z,1018.47
2022-07-30T12:02:29.646Z,1018.42
2022-07-30T12:04:04.375Z,1018.48
2022-07-30T12:05:06.984Z,1018.49
2022-07-30T12:06:09.656Z,1018.46
2022-07-30T12:07:44.616Z,1018.52
2022-07-30T12:08:47.721Z,1018.46
2022-07-30T12:09:58.941Z,1018.53
2022-07-30T12:11:34.029Z,1018.52
2022-07-30T12:12:36.746Z,1018.49
2022-07-30T12:13:55.931Z,1018.55
2022-07-30T12:15:30.329Z,1018.56
2022-07-30T12:16:32.945Z,1018.55
2022-07-30T12:17:35.756Z,1018.59
2022-07-30T12:19:53.206Z,1018.63
2022-07-30T12:20:57.637Z,1018.62
2022-07-30T12:22:05.079Z,1018.61
2022-07-30T12:23:39.599Z,1018.58
2022-07-30T12:24:42.303Z,1018.63
2022-07-30T12:25:53.441Z,1018.60
2022-07-30T12:27:27.909Z,1018.63
2022-07-30T12:28:34.070Z,1018.64
2022-07-30T12:29:36.778Z,1018.62
2022-07-30T12:31:11.072Z,1018.61
2022-07-30T12:32:13.741Z,1018.61
2022-07-30T12:33:16.543Z,1018.64
2022-07-30T12:34:51.047Z,1018.65
2022-07-30T12:35:54.200Z,1018.61
2022-07-30T12:36:57.016Z,1018.58
2022-07-30T12:38:31.865Z,1018.61
2022-07-30T12:39:34.593Z,1018.66
2022-07-30T12:40:37.886Z,1018.66
2022-07-30T12:42:13.152Z,1018.66
2022-07-30T12:43:24.917Z,1018.64
2022-07-30T12:44:27.632Z,1018.61
2022-07-30T12:46:05.654Z,1018.59
2022-07-30T12:47:13.724Z,1018.69
2022-07-30T12:48:18.171Z,1018.67
2022-07-30T12:50:25.857Z,1018.61
2022-07-30T12:51:30.058Z,1018.62
2022-07-30T12:52:40.499Z,1018.55
2022-07-30T12:54:15.028Z,1018.55
2022-07-30T12:55:18.142Z,1018.58
2022-07-30T12:56:21.653Z,1018.56
2022-07-30T12:57:57.529Z,1018.56
2022-07-30T12:59:06.198Z,1018.55
2022-07-30T13:00:23.463Z,1018.50
2022-07-30T13:01:26.390Z,1018.53
2022-07-30T13:02:30.367Z,1018.50
2022-07-30T13:04:04.824Z,1018.52
2022-07-30T13:05:22.332Z,1018.53
2022-07-30T13:06:25.101Z,1018.57
2022-07-30T13:08:00.280Z,1018.48
2022-07-30T13:09:03.041Z,1018.50
2022-07-30T13:10:05.599Z,1018.51
2022-07-30T13:11:48.756Z,1018.46
2022-07-30T13:12:52.373Z,1018.46
2022-07-30T13:13:55.113Z,1018.46
2022-07-30T13:15:29.542Z,1018.47
2022-07-30T13:16:45.911Z,1018.42
2022-07-30T13:17:50.422Z,1018.49
2022-07-30T13:19:24.936Z,1018.46
2022-07-30T13:20:28.082Z,1018.45
2022-07-30T13:21:30.740Z,1018.45
2022-07-30T13:23:13.388Z,1018.42
2022-07-30T13:24:23.581Z,1018.41
2022-07-30T13:25:26.265Z,1018.41
2022-07-30T13:27:14.537Z,1018.42
2022-07-30T13:28:17.342Z,1018.39
2022-07-30T13:29:21.825Z,1018.38
2022-07-30T13:30:56.235Z,1018.40
2022-07-30T13:31:59.219Z,1018.39
2022-07-30T13:33:01.836Z,1018.39
2022-07-30T13:34:36.186Z,1018.39
2022-07-30T13:35:38.856Z,1018.41
2022-07-30T13:36:41.840Z,1018.39
2022-07-30T13:38:29.999Z,1018.42
2022-07-30T13:39:38.115Z,1018.38
2022-07-30T13:40:40.835Z,1018.38
2022-07-30T13:42:20.550Z,1018.38
2022-07-30T13:43:24.298Z,1018.38
2022-07-30T13:44:30.870Z,1018.40
2022-07-30T13:46:11.146Z,1018.42
2022-07-30T13:47:15.193Z,1018.41
2022-07-30T13:48:17.932Z,1018.36
2022-07-30T13:49:52.755Z,1018.42
2022-07-30T13:50:55.351Z,1018.39
2022-07-30T13:51:59.584Z,1018.36
2022-07-30T13:53:34.098Z,1018.37
2022-07-30T13:54:36.888Z,1018.40
2022-07-30T13:55:39.600Z,1018.36
2022-07-30T13:57:17.500Z,1018.36
2022-07-30T13:58:20.273Z,1018.35
2022-07-30T13:59:27.773Z,1018.35
2022-07-30T14:00:22.843Z,1018.36
2022-07-30T14:01:29.731Z,1018.33
2022-07-30T14:02:33.757Z,1018.36
2022-07-30T14:04:08.257Z,1018.30
2022-07-30T14:05:10.835Z,1018.33
2022-07-30T14:06:22.461Z,1018.32
2022-07-30T14:07:57.616Z,1018.29
2022-07-30T14:09:00.216Z,1018.28
2022-07-30T14:10:05.921Z,1018.34
2022-07-30T14:11:40.264Z,1018.29
2022-07-30T14:12:42.973Z,1018.27
2022-07-30T14:13:45.825Z,1018.30
2022-07-30T14:15:23.689Z,1018.35
2022-07-30T14:16:59.447Z,1018.31
2022-07-30T14:18:07.953Z,1018.29
2022-07-30T14:19:42.431Z,1018.29
2022-07-30T14:20:48.521Z,1018.32
2022-07-30T14:21:52.662Z,1018.26
2022-07-30T14:23:27.172Z,1018.30
2022-07-30T14:24:29.815Z,1018.31
2022-07-30T14:25:32.523Z,1018.26
2022-07-30T14:27:10.232Z,1018.27
2022-07-30T14:28:12.937Z,1018.28
2022-07-30T14:29:15.778Z,1018.28
2022-07-30T14:30:50.763Z,1018.29
2022-07-30T14:31:53.550Z,1018.24
2022-07-30T14:33:04.796Z,1018.27
2022-07-30T14:34:39.534Z,1018.25
2022-07-30T14:35:46.921Z,1018.22
2022-07-30T14:36:53.126Z,1018.23
2022-07-30T14:38:32.571Z,1018.18
2022-07-30T14:39:35.286Z,1018.18
2022-07-30T14:40:37.888Z,1018.18
2022-07-30T14:42:13.573Z,1018.17
2022-07-30T14:43:17.955Z,1018.17
2022-07-30T14:44:22.444Z,1018.19
2022-07-30T14:45:56.823Z,1018.23
2022-07-30T14:47:04.117Z,1018.22
2022-07-30T14:48:08.053Z,1018.21
2022-07-30T14:49:43.137Z,1018.27
2022-07-30T14:51:26.746Z,1018.26
2022-07-30T14:52:31.949Z,1018.22
2022-07-30T14:54:12.078Z,1018.19
2022-07-30T14:55:17.934Z,1018.21
2022-07-30T14:56:23.427Z,1018.23
2022-07-30T14:57:58.782Z,1018.19
2022-07-30T14:59:01.464Z,1018.15
2022-07-30T15:00:35.577Z,1018.23
2022-07-30T15:02:10.879Z,1018.21
2022-07-30T15:03:13.809Z,1018.20
2022-07-30T15:04:51.126Z,1018.21
2022-07-30T15:05:58.151Z,1018.17
2022-07-30T15:07:01.013Z,1018.16
2022-07-30T15:08:37.063Z,1018.21
2022-07-30T15:09:39.897Z,1018.20
2022-07-30T15:10:43.793Z,1018.20
2022-07-30T15:12:56.526Z,1018.21
2022-07-30T15:14:03.505Z,1018.17
2022-07-30T15:15:17.986Z,1018.14
2022-07-30T15:17:09.667Z,1018.13
2022-07-30T15:18:12.634Z,1018.18
2022-07-30T15:19:15.684Z,1018.17
2022-07-30T15:20:50.187Z,1018.14
2022-07-30T15:21:52.891Z,1018.19
2022-07-30T15:22:55.998Z,1018.24
2022-07-30T15:24:38.105Z,1018.28
2022-07-30T15:25:41.949Z,1018.22
2022-07-30T15:26:44.566Z,1018.26
2022-07-30T15:28:30.524Z,1018.27
2022-07-30T15:29:33.304Z,1018.26
2022-07-30T15:30:36.032Z,1018.22
2022-07-30T15:32:11.462Z,1018.21
2022-07-30T15:33:15.561Z,1018.23
2022-07-30T15:34:23.072Z,1018.20
2022-07-30T15:36:07.192Z,1018.21
2022-07-30T15:37:11.215Z,1018.20
2022-07-30T15:38:14.116Z,1018.16
2022-07-30T15:39:48.617Z,1018.16
2022-07-30T15:40:52.235Z,1018.17
2022-07-30T15:42:03.722Z,1018.16
2022-07-30T15:43:38.432Z,1018.15
2022-07-30T15:44:48.382Z,1018.18
2022-07-30T15:46:14.236Z,1018.16
2022-07-30T15:47:48.902Z,1018.17